sensor_id;sensor_type;location;lat;lon;timestamp;P1;durP1;ratioP1;P2;durP2;ratioP2
51304;SDS011;37392;50.964;6.952;2024-01-25T00:01:12;54.97;;;8.98;;
51304;SDS011;37392;50.964;6.952;2024-01-25T00:03:38;68.47;;;9.65;;
51304;SDS011;37392;50.964;6.952;2024-01-25T00:06:06;57.83;;;9.95;;
51304;SDS011;37392;50.964;6.952;2024-01-25T00:08:32;56.63;;;9.27;;
51304;SDS011;37392;50.964;6.952;2024-01-25T00:10:59;42.22;;;6.95;;
51304;SDS011;37392;50.964;6.952;2024-01-25T00:13:27;63.78;;;9.85;;
51304;SDS011;37392;50.964;6.952;2024-01-25T00:15:52;59.80;;;8.38;;
51304;SDS011;37392;50.964;6.952;2024-01-25T00:18:18;51.28;;;8.00;;
51304;SDS011;37392;50.964;6.952;2024-01-25T00:20:43;82.68;;;9.98;;
51304;SDS011;37392;50.964;6.952;2024-01-25T00:23:09;69.95;;;9.50;;
51304;SDS011;37392;50.964;6.952;2024-01-25T00:25:34;60.03;;;9.98;;
51304;SDS011;37392;50.964;6.952;2024-01-25T00:28:00;65.57;;;10.55;;
51304;SDS011;37392;50.964;6.952;2024-01-25T00:30:25;64.50;;;9.32;;
51304;SDS011;37392;50.964;6.952;2024-01-25T00:32:51;51.08;;;9.48;;
51304;SDS011;37392;50.964;6.952;2024-01-25T00:35:17;66.35;;;9.07;;
51304;SDS011;37392;50.964;6.952;2024-01-25T00:37:42;57.83;;;8.70;;
51304;SDS011;37392;50.964;6.952;2024-01-25T00:40:08;66.93;;;10.07;;
51304;SDS011;37392;50.964;6.952;2024-01-25T00:42:39;80.55;;;9.48;;
51304;SDS011;37392;50.964;6.952;2024-01-25T00:45:08;53.95;;;8.32;;
51304;SDS011;37392;50.964;6.952;2024-01-25T00:47:36;59.28;;;9.82;;
51304;SDS011;37392;50.964;6.952;2024-01-25T00:50:02;70.72;;;11.68;;
51304;SDS011;37392;50.964;6.952;2024-01-25T00:52:29;60.78;;;8.55;;
51304;SDS011;37392;50.964;6.952;2024-01-25T00:54:55;66.82;;;9.98;;
51304;SDS011;37392;50.964;6.952;2024-01-25T00:57:21;56.28;;;9.73;;
51304;SDS011;37392;50.964;6.952;2024-01-25T00:59:50;51.83;;;9.02;;
51304;SDS011;37392;50.964;6.952;2024-01-25T01:02:16;66.53;;;9.25;;
51304;SDS011;37392;50.964;6.952;2024-01-25T01:04:42;55.08;;;9.52;;
51304;SDS011;37392;50.964;6.952;2024-01-25T01:07:08;58.22;;;10.15;;
51304;SDS011;37392;50.964;6.952;2024-01-25T01:09:35;48.75;;;9.95;;
51304;SDS011;37392;50.964;6.952;2024-01-25T01:12:00;51.75;;;9.32;;
51304;SDS011;37392;50.964;6.952;2024-01-25T01:14:26;79.10;;;12.07;;
51304;SDS011;37392;50.964;6.952;2024-01-25T01:16:53;60.42;;;10.93;;
51304;SDS011;37392;50.964;6.952;2024-01-25T01:19:20;54.72;;;7.55;;
51304;SDS011;37392;50.964;6.952;2024-01-25T01:21:46;66.45;;;12.07;;
51304;SDS011;37392;50.964;6.952;2024-01-25T01:24:11;73.38;;;9.32;;
51304;SDS011;37392;50.964;6.952;2024-01-25T01:26:37;63.30;;;9.60;;
51304;SDS011;37392;50.964;6.952;2024-01-25T01:29:03;64.80;;;9.65;;
51304;SDS011;37392;50.964;6.952;2024-01-25T01:31:29;68.28;;;10.35;;
51304;SDS011;37392;50.964;6.952;2024-01-25T01:33:55;66.78;;;8.20;;
51304;SDS011;37392;50.964;6.952;2024-01-25T01:36:20;73.55;;;9.77;;
51304;SDS011;37392;50.964;6.952;2024-01-25T01:38:46;63.05;;;11.38;;
51304;SDS011;37392;50.964;6.952;2024-01-25T01:41:12;51.00;;;9.60;;
51304;SDS011;37392;50.964;6.952;2024-01-25T01:43:38;51.70;;;7.55;;
51304;SDS011;37392;50.964;6.952;2024-01-25T01:46:06;53.08;;;8.30;;
51304;SDS011;37392;50.964;6.952;2024-01-25T01:48:38;72.97;;;9.20;;
51304;SDS011;37392;50.964;6.952;2024-01-25T01:51:05;55.28;;;9.55;;
51304;SDS011;37392;50.964;6.952;2024-01-25T01:53:30;68.80;;;8.75;;
51304;SDS011;37392;50.964;6.952;2024-01-25T01:55:58;67.95;;;8.68;;
51304;SDS011;37392;50.964;6.952;2024-01-25T01:58:24;59.88;;;9.93;;
51304;SDS011;37392;50.964;6.952;2024-01-25T02:00:52;66.53;;;8.05;;
51304;SDS011;37392;50.964;6.952;2024-01-25T02:03:19;99.32;;;10.50;;
51304;SDS011;37392;50.964;6.952;2024-01-25T02:05:45;53.70;;;8.68;;
51304;SDS011;37392;50.964;6.952;2024-01-25T02:08:10;53.78;;;8.07;;
51304;SDS011;37392;50.964;6.952;2024-01-25T02:10:36;63.28;;;9.15;;
51304;SDS011;37392;50.964;6.952;2024-01-25T02:13:01;58.30;;;9.18;;
51304;SDS011;37392;50.964;6.952;2024-01-25T02:15:27;64.90;;;9.90;;
51304;SDS011;37392;50.964;6.952;2024-01-25T02:17:52;63.75;;;10.35;;
51304;SDS011;37392;50.964;6.952;2024-01-25T02:20:19;72.28;;;8.77;;
51304;SDS011;37392;50.964;6.952;2024-01-25T02:22:44;66.32;;;9.48;;
51304;SDS011;37392;50.964;6.952;2024-01-25T02:25:10;67.05;;;9.05;;
51304;SDS011;37392;50.964;6.952;2024-01-25T02:27:35;60.78;;;8.13;;
51304;SDS011;37392;50.964;6.952;2024-01-25T02:30:04;75.63;;;9.45;;
51304;SDS011;37392;50.964;6.952;2024-01-25T02:32:31;55.92;;;7.80;;
51304;SDS011;37392;50.964;6.952;2024-01-25T02:34:57;45.55;;;7.72;;
51304;SDS011;37392;50.964;6.952;2024-01-25T02:37:22;55.92;;;10.02;;
51304;SDS011;37392;50.964;6.952;2024-01-25T02:39:48;79.88;;;11.25;;
51304;SDS011;37392;50.964;6.952;2024-01-25T02:42:13;70.55;;;10.20;;
51304;SDS011;37392;50.964;6.952;2024-01-25T02:44:41;70.70;;;9.20;;
51304;SDS011;37392;50.964;6.952;2024-01-25T02:47:08;69.38;;;8.25;;
51304;SDS011;37392;50.964;6.952;2024-01-25T02:49:34;64.38;;;9.48;;
51304;SDS011;37392;50.964;6.952;2024-01-25T02:51:59;94.40;;;9.75;;
51304;SDS011;37392;50.964;6.952;2024-01-25T02:54:25;59.25;;;8.65;;
51304;SDS011;37392;50.964;6.952;2024-01-25T02:56:51;82.93;;;10.80;;
51304;SDS011;37392;50.964;6.952;2024-01-25T02:59:16;75.43;;;11.80;;
51304;SDS011;37392;50.964;6.952;2024-01-25T03:01:43;47.45;;;8.10;;
51304;SDS011;37392;50.964;6.952;2024-01-25T03:04:09;69.03;;;10.27;;
51304;SDS011;37392;50.964;6.952;2024-01-25T03:06:35;55.05;;;8.88;;
51304;SDS011;37392;50.964;6.952;2024-01-25T03:09:01;51.33;;;9.93;;
51304;SDS011;37392;50.964;6.952;2024-01-25T03:11:29;60.90;;;9.82;;
51304;SDS011;37392;50.964;6.952;2024-01-25T03:13:55;49.92;;;8.15;;
51304;SDS011;37392;50.964;6.952;2024-01-25T03:16:23;75.43;;;10.40;;
51304;SDS011;37392;50.964;6.952;2024-01-25T03:18:49;60.33;;;8.85;;
51304;SDS011;37392;50.964;6.952;2024-01-25T03:21:14;74.63;;;8.45;;
51304;SDS011;37392;50.964;6.952;2024-01-25T03:23:40;60.58;;;9.23;;
51304;SDS011;37392;50.964;6.952;2024-01-25T03:26:05;70.40;;;11.10;;
51304;SDS011;37392;50.964;6.952;2024-01-25T03:28:31;68.38;;;10.02;;
51304;SDS011;37392;50.964;6.952;2024-01-25T03:33:27;49.78;;;8.40;;
51304;SDS011;37392;50.964;6.952;2024-01-25T03:35:54;69.57;;;8.90;;
51304;SDS011;37392;50.964;6.952;2024-01-25T03:38:19;67.82;;;9.13;;
51304;SDS011;37392;50.964;6.952;2024-01-25T03:40:45;80.78;;;11.27;;
51304;SDS011;37392;50.964;6.952;2024-01-25T03:43:11;67.32;;;10.27;;
51304;SDS011;37392;50.964;6.952;2024-01-25T03:45:37;61.83;;;9.32;;
51304;SDS011;37392;50.964;6.952;2024-01-25T03:48:02;72.45;;;10.10;;
51304;SDS011;37392;50.964;6.952;2024-01-25T03:50:28;68.38;;;8.95;;
51304;SDS011;37392;50.964;6.952;2024-01-25T03:52:53;78.30;;;10.55;;
51304;SDS011;37392;50.964;6.952;2024-01-25T03:55:19;70.80;;;10.98;;
51304;SDS011;37392;50.964;6.952;2024-01-25T03:57:45;70.50;;;10.73;;
51304;SDS011;37392;50.964;6.952;2024-01-25T04:00:11;72.05;;;10.25;;
51304;SDS011;37392;50.964;6.952;2024-01-25T04:02:37;78.97;;;11.38;;
51304;SDS011;37392;50.964;6.952;2024-01-25T04:05:03;63.25;;;8.35;;
51304;SDS011;37392;50.964;6.952;2024-01-25T04:07:29;63.20;;;10.43;;
51304;SDS011;37392;50.964;6.952;2024-01-25T04:09:55;77.75;;;9.13;;
51304;SDS011;37392;50.964;6.952;2024-01-25T04:12:20;66.22;;;10.05;;
51304;SDS011;37392;50.964;6.952;2024-01-25T04:14:46;85.00;;;10.23;;
51304;SDS011;37392;50.964;6.952;2024-01-25T04:17:12;45.78;;;8.65;;
51304;SDS011;37392;50.964;6.952;2024-01-25T04:19:37;64.47;;;10.63;;
51304;SDS011;37392;50.964;6.952;2024-01-25T04:22:03;60.92;;;9.68;;
51304;SDS011;37392;50.964;6.952;2024-01-25T04:24:28;66.97;;;8.63;;
51304;SDS011;37392;50.964;6.952;2024-01-25T04:26:54;76.88;;;10.07;;
51304;SDS011;37392;50.964;6.952;2024-01-25T04:29:19;85.30;;;11.15;;
51304;SDS011;37392;50.964;6.952;2024-01-25T04:31:45;66.70;;;10.10;;
51304;SDS011;37392;50.964;6.952;2024-01-25T04:34:13;61.13;;;9.68;;
51304;SDS011;37392;50.964;6.952;2024-01-25T04:36:39;67.82;;;10.32;;
51304;SDS011;37392;50.964;6.952;2024-01-25T04:39:05;61.70;;;8.68;;
51304;SDS011;37392;50.964;6.952;2024-01-25T04:41:30;77.72;;;10.27;;
51304;SDS011;37392;50.964;6.952;2024-01-25T04:43:56;73.82;;;11.05;;
51304;SDS011;37392;50.964;6.952;2024-01-25T04:46:21;79.40;;;11.73;;
51304;SDS011;37392;50.964;6.952;2024-01-25T04:48:47;54.85;;;9.05;;
51304;SDS011;37392;50.964;6.952;2024-01-25T04:51:16;58.08;;;8.20;;
51304;SDS011;37392;50.964;6.952;2024-01-25T04:53:42;67.88;;;10.02;;
51304;SDS011;37392;50.964;6.952;2024-01-25T04:56:08;82.57;;;11.73;;
51304;SDS011;37392;50.964;6.952;2024-01-25T04:58:34;54.20;;;10.10;;
51304;SDS011;37392;50.964;6.952;2024-01-25T05:00:59;66.15;;;10.95;;
51304;SDS011;37392;50.964;6.952;2024-01-25T05:03:25;84.45;;;11.40;;
51304;SDS011;37392;50.964;6.952;2024-01-25T05:05:50;67.38;;;11.10;;
51304;SDS011;37392;50.964;6.952;2024-01-25T05:08:16;53.03;;;10.80;;
51304;SDS011;37392;50.964;6.952;2024-01-25T05:10:42;58.03;;;10.30;;
51304;SDS011;37392;50.964;6.952;2024-01-25T05:13:08;60.75;;;12.93;;
51304;SDS011;37392;50.964;6.952;2024-01-25T05:15:34;75.60;;;10.15;;
51304;SDS011;37392;50.964;6.952;2024-01-25T05:18:00;93.10;;;11.38;;
51304;SDS011;37392;50.964;6.952;2024-01-25T05:20:26;67.43;;;10.00;;
51304;SDS011;37392;50.964;6.952;2024-01-25T05:25:26;55.47;;;8.13;;
51304;SDS011;37392;50.964;6.952;2024-01-25T05:27:52;32.47;;;7.05;;
51304;SDS011;37392;50.964;6.952;2024-01-25T05:30:19;65.60;;;8.77;;
51304;SDS011;37392;50.964;6.952;2024-01-25T05:32:45;66.38;;;8.77;;
51304;SDS011;37392;50.964;6.952;2024-01-25T05:35:13;91.80;;;9.68;;
51304;SDS011;37392;50.964;6.952;2024-01-25T05:37:39;53.65;;;8.68;;
51304;SDS011;37392;50.964;6.952;2024-01-25T05:40:05;54.95;;;8.85;;
51304;SDS011;37392;50.964;6.952;2024-01-25T05:42:31;66.97;;;9.30;;
51304;SDS011;37392;50.964;6.952;2024-01-25T05:44:57;66.50;;;8.65;;
51304;SDS011;37392;50.964;6.952;2024-01-25T05:47:23;60.72;;;9.50;;
51304;SDS011;37392;50.964;6.952;2024-01-25T05:49:49;52.72;;;9.07;;
51304;SDS011;37392;50.964;6.952;2024-01-25T05:52:14;67.03;;;10.82;;
51304;SDS011;37392;50.964;6.952;2024-01-25T05:54:40;81.70;;;10.07;;
51304;SDS011;37392;50.964;6.952;2024-01-25T05:57:05;66.05;;;8.68;;
51304;SDS011;37392;50.964;6.952;2024-01-25T05:59:31;68.45;;;8.73;;
51304;SDS011;37392;50.964;6.952;2024-01-25T06:01:57;65.88;;;10.52;;
51304;SDS011;37392;50.964;6.952;2024-01-25T06:04:22;72.63;;;10.27;;
51304;SDS011;37392;50.964;6.952;2024-01-25T06:06:48;58.40;;;8.80;;
51304;SDS011;37392;50.964;6.952;2024-01-25T06:09:13;70.88;;;10.15;;
51304;SDS011;37392;50.964;6.952;2024-01-25T06:11:40;71.25;;;11.32;;
51304;SDS011;37392;50.964;6.952;2024-01-25T06:14:07;66.95;;;10.90;;
51304;SDS011;37392;50.964;6.952;2024-01-25T06:16:33;76.38;;;10.18;;
51304;SDS011;37392;50.964;6.952;2024-01-25T06:18:59;56.45;;;9.60;;
51304;SDS011;37392;50.964;6.952;2024-01-25T06:21:26;58.70;;;10.35;;
51304;SDS011;37392;50.964;6.952;2024-01-25T06:23:55;74.20;;;10.15;;
51304;SDS011;37392;50.964;6.952;2024-01-25T06:26:33;69.65;;;8.90;;
51304;SDS011;37392;50.964;6.952;2024-01-25T06:33:06;44.88;;;8.20;;
51304;SDS011;37392;50.964;6.952;2024-01-25T06:36:07;71.30;;;8.98;;
51304;SDS011;37392;50.964;6.952;2024-01-25T06:38:47;67.75;;;8.02;;
51304;SDS011;37392;50.964;6.952;2024-01-25T06:41:48;52.65;;;7.82;;
51304;SDS011;37392;50.964;6.952;2024-01-25T06:44:15;68.43;;;9.27;;
51304;SDS011;37392;50.964;6.952;2024-01-25T06:46:42;52.90;;;8.65;;
51304;SDS011;37392;50.964;6.952;2024-01-25T06:49:07;68.43;;;8.50;;
51304;SDS011;37392;50.964;6.952;2024-01-25T06:51:33;80.15;;;10.40;;
51304;SDS011;37392;50.964;6.952;2024-01-25T06:54:01;73.65;;;9.90;;
51304;SDS011;37392;50.964;6.952;2024-01-25T06:56:27;101.13;;;13.57;;
51304;SDS011;37392;50.964;6.952;2024-01-25T06:58:53;65.90;;;8.73;;
51304;SDS011;37392;50.964;6.952;2024-01-25T07:01:22;89.25;;;11.48;;
51304;SDS011;37392;50.964;6.952;2024-01-25T07:03:48;67.18;;;9.60;;
51304;SDS011;37392;50.964;6.952;2024-01-25T07:06:17;75.15;;;9.57;;
51304;SDS011;37392;50.964;6.952;2024-01-25T07:08:43;58.63;;;10.25;;
51304;SDS011;37392;50.964;6.952;2024-01-25T07:11:09;64.53;;;8.77;;
51304;SDS011;37392;50.964;6.952;2024-01-25T07:13:35;56.28;;;10.32;;
51304;SDS011;37392;50.964;6.952;2024-01-25T07:16:01;56.97;;;9.07;;
51304;SDS011;37392;50.964;6.952;2024-01-25T07:18:26;49.90;;;10.20;;
51304;SDS011;37392;50.964;6.952;2024-01-25T07:20:52;79.55;;;11.73;;
51304;SDS011;37392;50.964;6.952;2024-01-25T07:23:32;50.90;;;9.45;;
51304;SDS011;37392;50.964;6.952;2024-01-25T07:25:59;52.83;;;9.90;;
51304;SDS011;37392;50.964;6.952;2024-01-25T07:28:25;73.05;;;10.40;;
51304;SDS011;37392;50.964;6.952;2024-01-25T07:33:21;61.28;;;9.50;;
51304;SDS011;37392;50.964;6.952;2024-01-25T07:35:47;75.57;;;10.13;;
51304;SDS011;37392;50.964;6.952;2024-01-25T07:40:46;68.28;;;10.32;;
51304;SDS011;37392;50.964;6.952;2024-01-25T07:43:14;41.38;;;8.40;;
51304;SDS011;37392;50.964;6.952;2024-01-25T07:45:40;59.72;;;9.52;;
51304;SDS011;37392;50.964;6.952;2024-01-25T07:48:06;58.45;;;9.77;;
51304;SDS011;37392;50.964;6.952;2024-01-25T07:50:32;71.60;;;10.68;;
51304;SDS011;37392;50.964;6.952;2024-01-25T07:52:58;55.83;;;10.35;;
51304;SDS011;37392;50.964;6.952;2024-01-25T07:55:26;91.18;;;11.77;;
51304;SDS011;37392;50.964;6.952;2024-01-25T07:57:52;75.28;;;11.73;;
51304;SDS011;37392;50.964;6.952;2024-01-25T08:00:17;59.08;;;9.25;;
51304;SDS011;37392;50.964;6.952;2024-01-25T08:02:43;56.40;;;11.82;;
51304;SDS011;37392;50.964;6.952;2024-01-25T08:05:10;83.72;;;12.45;;
51304;SDS011;37392;50.964;6.952;2024-01-25T08:07:36;87.47;;;14.63;;
51304;SDS011;37392;50.964;6.952;2024-01-25T08:10:03;73.82;;;12.85;;
51304;SDS011;37392;50.964;6.952;2024-01-25T08:12:30;85.45;;;13.02;;
51304;SDS011;37392;50.964;6.952;2024-01-25T08:14:55;64.45;;;11.38;;
51304;SDS011;37392;50.964;6.952;2024-01-25T08:17:21;53.60;;;10.85;;
51304;SDS011;37392;50.964;6.952;2024-01-25T08:19:47;101.70;;;14.15;;
51304;SDS011;37392;50.964;6.952;2024-01-25T08:22:12;80.13;;;12.82;;
51304;SDS011;37392;50.964;6.952;2024-01-25T08:24:38;92.22;;;14.95;;
51304;SDS011;37392;50.964;6.952;2024-01-25T08:27:05;73.18;;;12.95;;
51304;SDS011;37392;50.964;6.952;2024-01-25T08:29:32;65.10;;;13.70;;
51304;SDS011;37392;50.964;6.952;2024-01-25T08:31:58;82.70;;;14.32;;
51304;SDS011;37392;50.964;6.952;2024-01-25T08:34:24;76.38;;;13.35;;
51304;SDS011;37392;50.964;6.952;2024-01-25T08:36:49;67.45;;;16.42;;
51304;SDS011;37392;50.964;6.952;2024-01-25T08:39:15;81.35;;;15.05;;
51304;SDS011;37392;50.964;6.952;2024-01-25T08:41:41;71.10;;;13.68;;
51304;SDS011;37392;50.964;6.952;2024-01-25T08:44:07;64.38;;;14.13;;
51304;SDS011;37392;50.964;6.952;2024-01-25T08:46:33;70.95;;;13.65;;
51304;SDS011;37392;50.964;6.952;2024-01-25T08:48:59;54.47;;;12.75;;
51304;SDS011;37392;50.964;6.952;2024-01-25T08:51:24;84.38;;;15.80;;
51304;SDS011;37392;50.964;6.952;2024-01-25T08:53:50;62.38;;;12.88;;
51304;SDS011;37392;50.964;6.952;2024-01-25T08:56:16;74.15;;;13.88;;
51304;SDS011;37392;50.964;6.952;2024-01-25T08:58:42;63.25;;;12.85;;
51304;SDS011;37392;50.964;6.952;2024-01-25T09:01:07;77.40;;;15.80;;
51304;SDS011;37392;50.964;6.952;2024-01-25T09:03:34;91.10;;;13.60;;
51304;SDS011;37392;50.964;6.952;2024-01-25T09:06:00;76.47;;;14.45;;
51304;SDS011;37392;50.964;6.952;2024-01-25T09:08:30;63.90;;;14.13;;
51304;SDS011;37392;50.964;6.952;2024-01-25T09:10:57;81.05;;;14.13;;
51304;SDS011;37392;50.964;6.952;2024-01-25T09:13:23;77.20;;;16.23;;
51304;SDS011;37392;50.964;6.952;2024-01-25T09:15:48;63.50;;;12.93;;
51304;SDS011;37392;50.964;6.952;2024-01-25T09:18:14;78.60;;;14.30;;
51304;SDS011;37392;50.964;6.952;2024-01-25T09:20:47;59.05;;;14.75;;
51304;SDS011;37392;50.964;6.952;2024-01-25T09:23:14;77.93;;;15.48;;
51304;SDS011;37392;50.964;6.952;2024-01-25T09:25:45;71.43;;;15.63;;
51304;SDS011;37392;50.964;6.952;2024-01-25T09:28:11;55.63;;;14.70;;
51304;SDS011;37392;50.964;6.952;2024-01-25T09:30:40;68.00;;;16.00;;
51304;SDS011;37392;50.964;6.952;2024-01-25T09:33:07;79.32;;;15.48;;
51304;SDS011;37392;50.964;6.952;2024-01-25T09:35:32;74.03;;;14.98;;
51304;SDS011;37392;50.964;6.952;2024-01-25T09:37:58;62.05;;;13.35;;
51304;SDS011;37392;50.964;6.952;2024-01-25T09:40:24;79.07;;;15.75;;
51304;SDS011;37392;50.964;6.952;2024-01-25T09:42:49;74.13;;;15.18;;
51304;SDS011;37392;50.964;6.952;2024-01-25T09:45:31;67.07;;;15.00;;
51304;SDS011;37392;50.964;6.952;2024-01-25T09:47:57;67.95;;;14.60;;
51304;SDS011;37392;50.964;6.952;2024-01-25T09:50:32;58.10;;;13.73;;
51304;SDS011;37392;50.964;6.952;2024-01-25T09:53:25;69.68;;;14.05;;
51304;SDS011;37392;50.964;6.952;2024-01-25T09:58:41;68.60;;;16.33;;
51304;SDS011;37392;50.964;6.952;2024-01-25T10:01:27;76.85;;;17.65;;
51304;SDS011;37392;50.964;6.952;2024-01-25T10:03:55;52.92;;;14.65;;
51304;SDS011;37392;50.964;6.952;2024-01-25T10:06:34;59.85;;;14.68;;
51304;SDS011;37392;50.964;6.952;2024-01-25T10:09:28;65.82;;;15.93;;
51304;SDS011;37392;50.964;6.952;2024-01-25T10:12:12;66.95;;;16.38;;
51304;SDS011;37392;50.964;6.952;2024-01-25T10:17:32;61.00;;;13.23;;
51304;SDS011;37392;50.964;6.952;2024-01-25T10:20:07;56.35;;;12.43;;
51304;SDS011;37392;50.964;6.952;2024-01-25T10:22:38;66.57;;;15.23;;
51304;SDS011;37392;50.964;6.952;2024-01-25T10:25:19;51.40;;;12.32;;
51304;SDS011;37392;50.964;6.952;2024-01-25T10:27:45;57.28;;;14.32;;
51304;SDS011;37392;50.964;6.952;2024-01-25T10:30:12;42.53;;;11.13;;
51304;SDS011;37392;50.964;6.952;2024-01-25T10:32:58;58.88;;;12.63;;
51304;SDS011;37392;50.964;6.952;2024-01-25T10:35:38;56.63;;;12.93;;
51304;SDS011;37392;50.964;6.952;2024-01-25T10:40:48;59.83;;;14.05;;
51304;SDS011;37392;50.964;6.952;2024-01-25T10:43:15;60.70;;;12.87;;
51304;SDS011;37392;50.964;6.952;2024-01-25T10:45:46;70.32;;;13.48;;
51304;SDS011;37392;50.964;6.952;2024-01-25T10:48:56;42.03;;;10.75;;
51304;SDS011;37392;50.964;6.952;2024-01-25T10:51:38;51.42;;;12.90;;
51304;SDS011;37392;50.964;6.952;2024-01-25T10:54:26;58.60;;;12.73;;
51304;SDS011;37392;50.964;6.952;2024-01-25T11:00:28;62.35;;;14.32;;
51304;SDS011;37392;50.964;6.952;2024-01-25T11:03:09;55.47;;;12.20;;
51304;SDS011;37392;50.964;6.952;2024-01-25T11:06:17;58.90;;;13.93;;
51304;SDS011;37392;50.964;6.952;2024-01-25T11:09:44;65.43;;;17.42;;
51304;SDS011;37392;50.964;6.952;2024-01-25T11:12:58;61.30;;;13.90;;
51304;SDS011;37392;50.964;6.952;2024-01-25T11:15:41;50.38;;;11.77;;
51304;SDS011;37392;50.964;6.952;2024-01-25T11:18:18;40.70;;;12.15;;
51304;SDS011;37392;50.964;6.952;2024-01-25T11:23:36;62.30;;;13.65;;
51304;SDS011;37392;50.964;6.952;2024-01-25T11:26:27;60.67;;;15.38;;
51304;SDS011;37392;50.964;6.952;2024-01-25T11:29:52;46.75;;;11.38;;
51304;SDS011;37392;50.964;6.952;2024-01-25T11:32:33;43.63;;;11.63;;
51304;SDS011;37392;50.964;6.952;2024-01-25T11:35:53;60.35;;;12.02;;
51304;SDS011;37392;50.964;6.952;2024-01-25T11:38:30;55.58;;;11.70;;
51304;SDS011;37392;50.964;6.952;2024-01-25T11:43:47;54.75;;;12.38;;
51304;SDS011;37392;50.964;6.952;2024-01-25T11:46:23;40.20;;;10.15;;
51304;SDS011;37392;50.964;6.952;2024-01-25T11:49:22;57.90;;;13.07;;
51304;SDS011;37392;50.964;6.952;2024-01-25T11:51:50;46.00;;;11.10;;
51304;SDS011;37392;50.964;6.952;2024-01-25T11:57:37;60.13;;;10.57;;
51304;SDS011;37392;50.964;6.952;2024-01-25T12:00:06;50.55;;;11.48;;
51304;SDS011;37392;50.964;6.952;2024-01-25T12:03:02;55.38;;;12.52;;
51304;SDS011;37392;50.964;6.952;2024-01-25T12:05:29;51.70;;;10.90;;
51304;SDS011;37392;50.964;6.952;2024-01-25T12:07:57;40.65;;;10.20;;
51304;SDS011;37392;50.964;6.952;2024-01-25T12:10:24;46.85;;;11.45;;
51304;SDS011;37392;50.964;6.952;2024-01-25T12:12:55;62.67;;;18.20;;
51304;SDS011;37392;50.964;6.952;2024-01-25T12:15:25;54.00;;;14.07;;
51304;SDS011;37392;50.964;6.952;2024-01-25T12:17:54;49.40;;;12.05;;
51304;SDS011;37392;50.964;6.952;2024-01-25T12:23:53;55.03;;;9.50;;
51304;SDS011;37392;50.964;6.952;2024-01-25T12:26:41;41.45;;;8.15;;
51304;SDS011;37392;50.964;6.952;2024-01-25T12:29:50;39.33;;;9.30;;
51304;SDS011;37392;50.964;6.952;2024-01-25T12:32:19;42.85;;;9.23;;
51304;SDS011;37392;50.964;6.952;2024-01-25T12:35:05;37.00;;;8.52;;
51304;SDS011;37392;50.964;6.952;2024-01-25T12:40:42;33.88;;;7.70;;
51304;SDS011;37392;50.964;6.952;2024-01-25T12:44:08;43.08;;;7.63;;
51304;SDS011;37392;50.964;6.952;2024-01-25T12:46:34;47.95;;;10.95;;
51304;SDS011;37392;50.964;6.952;2024-01-25T12:52:41;44.83;;;9.93;;
51304;SDS011;37392;50.964;6.952;2024-01-25T12:55:23;36.47;;;8.57;;
51304;SDS011;37392;50.964;6.952;2024-01-25T12:57:54;33.47;;;8.45;;
51304;SDS011;37392;50.964;6.952;2024-01-25T13:00:58;39.88;;;9.25;;
51304;SDS011;37392;50.964;6.952;2024-01-25T13:03:24;42.20;;;9.30;;
51304;SDS011;37392;50.964;6.952;2024-01-25T13:05:49;33.45;;;8.27;;
51304;SDS011;37392;50.964;6.952;2024-01-25T13:08:15;51.53;;;9.38;;
51304;SDS011;37392;50.964;6.952;2024-01-25T13:10:40;54.17;;;8.50;;
51304;SDS011;37392;50.964;6.952;2024-01-25T13:13:06;59.30;;;10.75;;
51304;SDS011;37392;50.964;6.952;2024-01-25T13:15:31;46.95;;;9.80;;
51304;SDS011;37392;50.964;6.952;2024-01-25T13:17:57;37.53;;;8.10;;
51304;SDS011;37392;50.964;6.952;2024-01-25T13:20:22;49.53;;;9.38;;
51304;SDS011;37392;50.964;6.952;2024-01-25T13:22:48;55.72;;;10.07;;
51304;SDS011;37392;50.964;6.952;2024-01-25T13:25:13;38.55;;;8.52;;
51304;SDS011;37392;50.964;6.952;2024-01-25T13:27:39;49.85;;;8.18;;
51304;SDS011;37392;50.964;6.952;2024-01-25T13:30:05;34.78;;;7.75;;
51304;SDS011;37392;50.964;6.952;2024-01-25T13:32:32;41.33;;;6.90;;
51304;SDS011;37392;50.964;6.952;2024-01-25T13:34:57;43.67;;;7.80;;
51304;SDS011;37392;50.964;6.952;2024-01-25T13:37:22;42.08;;;6.88;;
51304;SDS011;37392;50.964;6.952;2024-01-25T13:39:48;43.25;;;7.57;;
51304;SDS011;37392;50.964;6.952;2024-01-25T13:42:14;38.90;;;7.18;;
51304;SDS011;37392;50.964;6.952;2024-01-25T13:44:39;35.55;;;6.97;;
51304;SDS011;37392;50.964;6.952;2024-01-25T13:47:05;47.50;;;7.50;;
51304;SDS011;37392;50.964;6.952;2024-01-25T13:49:30;28.63;;;9.13;;
51304;SDS011;37392;50.964;6.952;2024-01-25T13:51:56;63.97;;;19.08;;
51304;SDS011;37392;50.964;6.952;2024-01-25T13:54:24;46.42;;;11.38;;
51304;SDS011;37392;50.964;6.952;2024-01-25T13:56:50;49.33;;;8.55;;
51304;SDS011;37392;50.964;6.952;2024-01-25T13:59:15;35.17;;;8.77;;
51304;SDS011;37392;50.964;6.952;2024-01-25T14:01:41;49.03;;;7.35;;
51304;SDS011;37392;50.964;6.952;2024-01-25T14:04:07;39.58;;;8.48;;
51304;SDS011;37392;50.964;6.952;2024-01-25T14:06:32;54.58;;;7.90;;
51304;SDS011;37392;50.964;6.952;2024-01-25T14:08:58;38.58;;;7.93;;
51304;SDS011;37392;50.964;6.952;2024-01-25T14:11:23;32.17;;;6.78;;
51304;SDS011;37392;50.964;6.952;2024-01-25T14:13:51;38.28;;;6.10;;
51304;SDS011;37392;50.964;6.952;2024-01-25T14:16:16;40.55;;;7.53;;
51304;SDS011;37392;50.964;6.952;2024-01-25T14:18:42;37.30;;;7.78;;
51304;SDS011;37392;50.964;6.952;2024-01-25T14:21:09;31.40;;;7.53;;
51304;SDS011;37392;50.964;6.952;2024-01-25T14:23:35;24.83;;;5.68;;
51304;SDS011;37392;50.964;6.952;2024-01-25T14:26:00;52.08;;;9.70;;
51304;SDS011;37392;50.964;6.952;2024-01-25T14:28:26;33.70;;;6.40;;
51304;SDS011;37392;50.964;6.952;2024-01-25T14:30:51;36.95;;;6.97;;
51304;SDS011;37392;50.964;6.952;2024-01-25T14:33:17;28.13;;;5.43;;
51304;SDS011;37392;50.964;6.952;2024-01-25T14:35:43;47.45;;;7.90;;
51304;SDS011;37392;50.964;6.952;2024-01-25T14:38:09;41.95;;;8.27;;
51304;SDS011;37392;50.964;6.952;2024-01-25T14:40:35;24.17;;;4.85;;
51304;SDS011;37392;50.964;6.952;2024-01-25T14:43:00;48.38;;;9.15;;
51304;SDS011;37392;50.964;6.952;2024-01-25T14:45:27;46.10;;;9.45;;
51304;SDS011;37392;50.964;6.952;2024-01-25T14:47:54;47.50;;;7.85;;
51304;SDS011;37392;50.964;6.952;2024-01-25T14:50:20;34.15;;;6.55;;
51304;SDS011;37392;50.964;6.952;2024-01-25T14:52:46;36.72;;;6.55;;
51304;SDS011;37392;50.964;6.952;2024-01-25T14:55:12;35.35;;;6.50;;
51304;SDS011;37392;50.964;6.952;2024-01-25T14:57:37;40.85;;;6.57;;
51304;SDS011;37392;50.964;6.952;2024-01-25T15:00:03;37.40;;;7.68;;
51304;SDS011;37392;50.964;6.952;2024-01-25T15:02:32;48.95;;;8.05;;
51304;SDS011;37392;50.964;6.952;2024-01-25T15:04:58;49.35;;;8.52;;
51304;SDS011;37392;50.964;6.952;2024-01-25T15:07:24;45.03;;;8.30;;
51304;SDS011;37392;50.964;6.952;2024-01-25T15:09:49;33.88;;;6.88;;
51304;SDS011;37392;50.964;6.952;2024-01-25T15:12:15;40.53;;;6.07;;
51304;SDS011;37392;50.964;6.952;2024-01-25T15:14:45;26.25;;;5.97;;
51304;SDS011;37392;50.964;6.952;2024-01-25T15:17:10;38.28;;;6.43;;
51304;SDS011;37392;50.964;6.952;2024-01-25T15:19:36;43.10;;;6.65;;
51304;SDS011;37392;50.964;6.952;2024-01-25T15:22:02;52.13;;;6.78;;
51304;SDS011;37392;50.964;6.952;2024-01-25T15:24:29;37.38;;;7.13;;